createdAt,value
2023-05-20T00:01:04.781Z,12.30
2023-05-20T00:03:31.675Z,12.20
2023-05-20T00:05:58.405Z,12.20
2023-05-20T00:08:25.355Z,12.20
2023-05-20T00:10:52.058Z,12.40
2023-05-20T00:13:18.797Z,12.20
2023-05-20T00:15:45.705Z,12.20
2023-05-20T00:18:12.443Z,12.30
2023-05-20T00:20:39.241Z,12.30
2023-05-20T00:23:05.997Z,12.30
2023-05-20T00:25:33.173Z,12.30
2023-05-20T00:28:00.078Z,12.20
2023-05-20T00:30:26.860Z,12.20
2023-05-20T00:32:53.737Z,12.20
2023-05-20T00:35:20.658Z,12.20
2023-05-20T00:37:47.516Z,12.20
2023-05-20T00:40:15.636Z,12.10
2023-05-20T00:42:42.565Z,12.20
2023-05-20T00:45:09.637Z,12.20
2023-05-20T00:47:37.299Z,12.20
2023-05-20T00:50:04.558Z,12.20
2023-05-20T00:52:32.838Z,12.20
2023-05-20T00:55:00.151Z,12.20
2023-05-20T00:57:27.181Z,12.20
2023-05-20T00:59:54.189Z,12.30
2023-05-20T01:02:21.462Z,12.20
2023-05-20T01:04:48.553Z,12.30
2023-05-20T01:07:19.239Z,12.20
2023-05-20T01:09:46.221Z,12.20
2023-05-20T01:12:15.676Z,12.20
2023-05-20T01:15:00.473Z,12.20
2023-05-20T01:17:31.136Z,12.20
2023-05-20T01:19:59.795Z,12.20
2023-05-20T01:22:28.145Z,12.10
2023-05-20T01:24:55.494Z,12.00
2023-05-20T01:27:22.969Z,12.00
2023-05-20T01:29:51.308Z,12.00
2023-05-20T01:32:22.354Z,11.90
2023-05-20T01:34:51.446Z,11.90
2023-05-20T01:37:19.881Z,11.90
2023-05-20T01:39:48.491Z,11.90
2023-05-20T01:42:16.405Z,11.90
2023-05-20T01:44:43.691Z,11.90
2023-05-20T01:47:10.451Z,11.90
2023-05-20T01:49:37.192Z,11.90
2023-05-20T01:52:04.806Z,11.90
2023-05-20T01:54:31.674Z,11.90
2023-05-20T01:56:58.398Z,11.90
2023-05-20T01:59:25.196Z,11.90
2023-05-20T02:01:51.955Z,11.80
2023-05-20T02:04:19.312Z,11.80
2023-05-20T02:06:46.269Z,11.80
2023-05-20T02:09:13.615Z,11.80
2023-05-20T02:11:40.742Z,11.80
2023-05-20T02:14:07.494Z,11.80
2023-05-20T02:16:34.310Z,11.80
2023-05-20T02:19:02.224Z,11.80
2023-05-20T02:21:29.068Z,11.80
2023-05-20T02:23:55.999Z,11.80
2023-05-20T02:26:22.782Z,11.80
2023-05-20T02:28:50.874Z,11.70
2023-05-20T02:31:18.153Z,11.70
2023-05-20T02:33:45.875Z,11.70
2023-05-20T02:36:12.699Z,11.70
2023-05-20T02:38:39.560Z,11.70
2023-05-20T02:41:06.660Z,11.60
2023-05-20T02:43:34.689Z,11.60
2023-05-20T02:46:01.491Z,11.60
2023-05-20T02:48:28.393Z,11.60
2023-05-20T02:50:55.403Z,11.50
2023-05-20T02:53:22.204Z,11.50
2023-05-20T02:55:49.654Z,11.60
2023-05-20T02:58:17.292Z,11.50
2023-05-20T03:00:44.243Z,11.60
2023-05-20T03:03:11.199Z,11.50
2023-05-20T03:05:38.173Z,11.50
2023-05-20T03:08:09.825Z,11.50
2023-05-20T03:10:39.977Z,11.50
2023-05-20T03:13:11.502Z,11.50
2023-05-20T03:15:39.290Z,11.50
2023-05-20T03:18:07.285Z,11.50
2023-05-20T03:20:38.317Z,11.50
2023-05-20T03:23:05.993Z,11.40
2023-05-20T03:25:33.095Z,11.40
2023-05-20T03:28:00.014Z,11.30
2023-05-20T03:30:28.115Z,11.30
2023-05-20T03:32:57.798Z,11.30
2023-05-20T03:35:25.041Z,11.30
2023-05-20T03:37:53.250Z,11.30
2023-05-20T03:40:21.339Z,11.20
2023-05-20T03:42:48.081Z,11.20
2023-05-20T03:45:14.803Z,11.20
2023-05-20T03:47:41.578Z,11.20
2023-05-20T03:50:08.703Z,11.10
2023-05-20T03:52:35.428Z,11.10
2023-05-20T03:55:02.241Z,11.10
2023-05-20T03:57:29.578Z,11.10
2023-05-20T03:59:56.351Z,11.00
2023-05-20T04:02:23.192Z,11.00
2023-05-20T04:04:53.020Z,11.00
2023-05-20T04:07:20.015Z,11.00
2023-05-20T04:09:46.842Z,11.00
2023-05-20T04:12:14.010Z,11.00
2023-05-20T04:14:42.244Z,11.00
2023-05-20T04:17:09.727Z,11.00
2023-05-20T04:19:38.284Z,11.00
2023-05-20T04:22:05.255Z,11.00
2023-05-20T04:24:32.075Z,11.10
2023-05-20T04:26:58.759Z,11.00
2023-05-20T04:29:25.550Z,11.10
2023-05-20T04:31:52.375Z,11.10
2023-05-20T04:34:20.357Z,11.10
2023-05-20T04:36:47.155Z,11.10
2023-05-20T04:39:15.638Z,11.20
2023-05-20T04:41:42.320Z,11.20
2023-05-20T04:44:09.568Z,11.20
2023-05-20T04:46:36.483Z,11.40
2023-05-20T04:49:04.596Z,11.50
2023-05-20T04:51:31.732Z,11.40
2023-05-20T04:53:59.177Z,11.30
2023-05-20T04:56:26.231Z,11.50
2023-05-20T04:58:53.061Z,11.50
2023-05-20T05:01:20.516Z,11.60
2023-05-20T05:03:47.306Z,11.60
2023-05-20T05:06:14.035Z,11.70
2023-05-20T05:08:41.006Z,11.70
2023-05-20T05:11:08.481Z,11.80
2023-05-20T05:13:35.522Z,11.80
2023-05-20T05:16:03.336Z,11.90
2023-05-20T05:18:30.376Z,12.00
2023-05-20T05:21:05.037Z,12.00
2023-05-20T05:23:32.697Z,12.10
2023-05-20T05:25:59.741Z,12.10
2023-05-20T05:28:26.670Z,12.20
2023-05-20T05:30:56.324Z,12.30
2023-05-20T05:33:23.286Z,12.30
2023-05-20T05:35:51.007Z,12.50
2023-05-20T05:38:18.163Z,12.80
2023-05-20T05:40:44.882Z,13.60
2023-05-20T05:43:12.348Z,14.50
2023-05-20T05:45:39.447Z,15.70
2023-05-20T05:48:06.262Z,16.60
2023-05-20T05:50:33.146Z,17.30
2023-05-20T05:53:00.049Z,17.90
2023-05-20T05:55:26.906Z,18.60
2023-05-20T05:57:53.948Z,19.40
2023-05-20T06:00:21.227Z,20.00
2023-05-20T06:02:48.542Z,20.50
2023-05-20T06:05:15.711Z,21.00
2023-05-20T06:07:42.551Z,21.40
2023-05-20T06:10:10.007Z,21.60
2023-05-20T06:12:36.866Z,22.00
2023-05-20T06:15:04.052Z,22.30
2023-05-20T06:17:30.955Z,22.60
2023-05-20T06:19:57.861Z,22.80
2023-05-20T06:22:24.823Z,22.80
2023-05-20T06:24:51.808Z,22.90
2023-05-20T06:27:18.605Z,22.90
2023-05-20T06:29:45.473Z,23.00
2023-05-20T06:32:12.295Z,23.20
2023-05-20T06:34:39.647Z,23.50
2023-05-20T06:37:06.494Z,23.80
2023-05-20T06:39:33.182Z,24.20
2023-05-20T06:41:59.894Z,24.50
2023-05-20T06:44:27.777Z,24.80
2023-05-20T06:46:54.649Z,25.10
2023-05-20T06:49:21.571Z,24.90
2023-05-20T06:51:48.832Z,25.00
2023-05-20T06:54:15.771Z,25.00
2023-05-20T06:56:56.893Z,24.90
2023-05-20T07:03:37.425Z,24.60
2023-05-20T07:06:04.311Z,24.70
2023-05-20T07:08:31.007Z,24.70
2023-05-20T07:10:57.804Z,24.90
2023-05-20T07:13:25.968Z,25.20
2023-05-20T07:15:52.832Z,25.20
2023-05-20T07:18:19.934Z,25.30
2023-05-20T07:20:46.914Z,25.50
2023-05-20T07:26:43.183Z,25.80
2023-05-20T07:29:10.708Z,26.00
2023-05-20T07:31:37.787Z,25.90
2023-05-20T07:34:04.808Z,25.90
2023-05-20T07:36:34.602Z,25.80
2023-05-20T07:39:05.007Z,25.60
2023-05-20T07:41:34.443Z,25.50
2023-05-20T07:44:04.536Z,25.20
2023-05-20T07:46:31.749Z,25.20
2023-05-20T07:48:58.693Z,25.20
2023-05-20T07:51:25.653Z,25.20
2023-05-20T07:53:52.677Z,25.00
2023-05-20T07:56:19.539Z,24.80
2023-05-20T07:58:53.902Z,25.10
2023-05-20T08:01:21.326Z,24.90
2023-05-20T08:03:48.229Z,24.80
2023-05-20T08:06:15.125Z,24.80
2023-05-20T08:08:44.250Z,24.90
2023-05-20T08:11:11.083Z,24.90
2023-05-20T08:13:38.086Z,24.90
2023-05-20T08:16:06.116Z,24.80
2023-05-20T08:18:34.809Z,24.70
2023-05-20T08:21:09.289Z,24.70
2023-05-20T08:23:40.226Z,24.90
2023-05-20T08:26:07.793Z,24.70
2023-05-20T08:28:37.303Z,24.80
2023-05-20T08:31:04.258Z,24.60
2023-05-20T08:33:31.164Z,24.70
2023-05-20T08:35:57.913Z,24.80
2023-05-20T08:38:24.595Z,24.90
2023-05-20T08:40:56.417Z,25.00
2023-05-20T08:43:26.934Z,25.20
2023-05-20T08:45:53.926Z,25.20
2023-05-20T08:48:23.585Z,25.40
2023-05-20T08:50:52.154Z,25.40
2023-05-20T08:53:21.993Z,25.10
2023-05-20T08:56:00.751Z,25.00
2023-05-20T08:58:29.405Z,24.90
2023-05-20T09:00:56.592Z,24.90
2023-05-20T09:03:24.416Z,24.80
2023-05-20T09:05:52.497Z,24.60
2023-05-20T09:08:24.356Z,24.40
2023-05-20T09:10:53.723Z,24.20
2023-05-20T09:13:22.292Z,23.70
2023-05-20T09:15:50.914Z,23.50
2023-05-20T09:18:17.812Z,23.70
2023-05-20T09:20:47.326Z,23.70
2023-05-20T09:23:15.354Z,23.90
2023-05-20T09:25:42.066Z,24.00
2023-05-20T09:28:09.339Z,23.90
2023-05-20T09:30:36.479Z,23.90
2023-05-20T09:33:05.605Z,23.80
2023-05-20T09:35:37.687Z,23.60
2023-05-20T09:38:09.669Z,23.30
2023-05-20T09:40:40.384Z,22.90
2023-05-20T09:43:07.976Z,22.80
2023-05-20T09:45:35.291Z,22.60
2023-05-20T09:48:03.892Z,22.80
2023-05-20T09:50:31.634Z,22.80
2023-05-20T09:53:03.080Z,23.10
2023-05-20T09:55:30.833Z,23.20
2023-05-20T09:58:02.014Z,23.30
2023-05-20T10:00:28.872Z,23.20
2023-05-20T10:02:56.530Z,22.90
2023-05-20T10:05:38.683Z,22.50
2023-05-20T10:08:30.374Z,22.40
2023-05-20T10:11:25.052Z,22.50
2023-05-20T10:14:19.757Z,22.50
2023-05-20T10:17:10.055Z,22.50
2023-05-20T10:19:37.070Z,22.60
2023-05-20T10:22:04.758Z,22.60
2023-05-20T10:24:34.505Z,22.60
2023-05-20T10:27:09.167Z,22.60
2023-05-20T10:29:54.000Z,22.70
2023-05-20T10:32:33.212Z,22.70
2023-05-20T10:35:05.628Z,22.70
2023-05-20T10:37:39.934Z,22.50
2023-05-20T10:40:11.650Z,22.30
2023-05-20T10:42:38.871Z,22.40
2023-05-20T10:45:07.180Z,22.30
2023-05-20T10:47:34.502Z,22.40
2023-05-20T10:50:07.952Z,22.70
2023-05-20T10:52:39.064Z,22.80
2023-05-20T10:55:06.676Z,22.70
2023-05-20T10:57:34.756Z,22.60
2023-05-20T11:00:02.206Z,22.80
2023-05-20T11:02:29.542Z,22.90
2023-05-20T11:04:58.571Z,22.40
2023-05-20T11:07:29.971Z,22.20
2023-05-20T11:09:57.653Z,22.20
2023-05-20T11:12:26.155Z,22.30
2023-05-20T11:14:53.389Z,22.00
2023-05-20T11:17:20.790Z,22.10
2023-05-20T11:19:51.675Z,22.30
2023-05-20T11:22:18.868Z,22.20
2023-05-20T11:24:47.125Z,22.10
2023-05-20T11:27:14.028Z,22.00
2023-05-20T11:29:41.077Z,22.00
2023-05-20T11:32:08.564Z,22.30
2023-05-20T11:34:36.896Z,22.40
2023-05-20T11:37:08.973Z,22.50
2023-05-20T11:39:35.885Z,22.50
2023-05-20T11:42:03.634Z,22.80
2023-05-20T11:44:30.691Z,22.80
2023-05-20T11:47:02.069Z,23.00
2023-05-20T11:49:29.122Z,23.10
2023-05-20T11:51:59.286Z,23.10
2023-05-20T11:54:26.283Z,23.20
2023-05-20T11:56:55.182Z,23.20
2023-05-20T11:59:24.463Z,23.10
2023-05-20T12:01:51.181Z,22.90
2023-05-20T12:04:18.666Z,22.70
2023-05-20T12:06:46.865Z,22.70
2023-05-20T12:09:14.073Z,22.70
2023-05-20T12:11:41.656Z,22.80
2023-05-20T12:14:09.209Z,22.70
2023-05-20T12:16:38.228Z,22.50
2023-05-20T12:19:05.603Z,22.50
2023-05-20T12:21:32.653Z,22.60
2023-05-20T12:24:00.063Z,22.70
2023-05-20T12:26:28.178Z,22.60
2023-05-20T12:28:55.583Z,22.60
2023-05-20T12:31:22.440Z,22.80
2023-05-20T12:33:49.317Z,22.80
2023-05-20T12:36:16.441Z,22.80
2023-05-20T12:38:43.203Z,22.60
2023-05-20T12:41:10.033Z,22.30
2023-05-20T12:43:37.577Z,22.30
2023-05-20T12:46:05.085Z,22.30
2023-05-20T12:48:32.095Z,22.40
2023-05-20T12:50:59.120Z,22.60
2023-05-20T12:53:26.121Z,22.40
2023-05-20T12:55:52.951Z,22.10
2023-05-20T12:58:19.910Z,22.20
2023-05-20T13:00:46.695Z,22.40
2023-05-20T13:03:13.568Z,22.70
2023-05-20T13:05:40.461Z,22.70
2023-05-20T13:08:08.983Z,22.80
2023-05-20T13:10:36.281Z,22.90
2023-05-20T13:13:03.311Z,23.10
2023-05-20T13:15:30.080Z,23.30
2023-05-20T13:17:57.220Z,23.20
2023-05-20T13:20:23.980Z,23.10
2023-05-20T13:22:51.093Z,23.00
2023-05-20T13:25:18.033Z,23.00
2023-05-20T13:27:44.753Z,23.00
2023-05-20T13:30:11.782Z,23.20
2023-05-20T13:32:38.804Z,23.40
2023-05-20T13:35:06.086Z,23.70
2023-05-20T13:37:32.784Z,23.70
2023-05-20T13:39:59.474Z,24.00
2023-05-20T13:42:26.246Z,24.10
2023-05-20T13:44:53.014Z,23.90
2023-05-20T13:47:20.074Z,23.80
2023-05-20T13:49:46.765Z,23.80
2023-05-20T13:52:13.468Z,24.00
2023-05-20T13:54:40.565Z,24.20
2023-05-20T13:57:08.094Z,24.30
2023-05-20T13:59:35.243Z,24.10
2023-05-20T14:02:02.515Z,23.90
2023-05-20T14:04:31.260Z,24.00
2023-05-20T14:06:59.268Z,24.20
2023-05-20T14:09:26.393Z,24.30
2023-05-20T14:11:53.208Z,24.20
2023-05-20T14:14:19.919Z,24.20
2023-05-20T14:16:47.084Z,24.00
2023-05-20T14:19:13.866Z,23.90
2023-05-20T14:21:40.653Z,23.70
2023-05-20T14:24:07.451Z,23.60
2023-05-20T14:26:34.790Z,23.60
2023-05-20T14:29:01.761Z,23.40
2023-05-20T14:31:28.577Z,23.60
2023-05-20T14:33:55.425Z,23.60
2023-05-20T14:36:22.308Z,23.50
2023-05-20T14:38:49.823Z,23.50
2023-05-20T14:41:17.280Z,23.50
2023-05-20T14:43:44.048Z,23.60
2023-05-20T14:46:11.482Z,23.50
2023-05-20T14:48:38.350Z,23.20
2023-05-20T14:51:05.352Z,23.20
2023-05-20T14:53:32.156Z,23.10
2023-05-20T14:55:58.906Z,23.20
2023-05-20T14:58:25.688Z,23.10
2023-05-20T15:00:56.037Z,23.10
2023-05-20T15:03:27.977Z,23.10
2023-05-20T15:05:54.836Z,23.10
2023-05-20T15:08:21.739Z,23.00
2023-05-20T15:10:48.570Z,23.10
2023-05-20T15:13:15.294Z,23.10
2023-05-20T15:15:42.168Z,23.10
2023-05-20T15:18:08.961Z,23.00
2023-05-20T15:20:35.989Z,23.10
2023-05-20T15:23:04.034Z,23.20
2023-05-20T15:25:30.891Z,23.20
2023-05-20T15:27:57.818Z,23.30
2023-05-20T15:30:24.717Z,23.10
2023-05-20T15:32:51.630Z,23.00
2023-05-20T15:35:18.367Z,23.00
2023-05-20T15:37:45.090Z,22.80
2023-05-20T15:40:12.051Z,22.60
2023-05-20T15:42:39.171Z,22.60
2023-05-20T15:45:07.365Z,22.60
2023-05-20T15:47:34.302Z,22.60
2023-05-20T15:50:05.136Z,22.50
2023-05-20T15:52:31.892Z,22.50
2023-05-20T15:54:58.814Z,22.40
2023-05-20T15:57:26.212Z,22.30
2023-05-20T15:59:53.314Z,22.30
2023-05-20T16:02:21.766Z,22.40
2023-05-20T16:04:48.586Z,22.10
2023-05-20T16:07:15.468Z,22.00
2023-05-20T16:09:42.337Z,22.00
2023-05-20T16:12:09.016Z,22.10
2023-05-20T16:14:36.161Z,22.00
2023-05-20T16:17:02.865Z,22.30
2023-05-20T16:19:29.802Z,22.40
2023-05-20T16:21:56.617Z,22.50
2023-05-20T16:24:23.368Z,22.20
2023-05-20T16:26:53.023Z,22.20
2023-05-20T16:29:19.896Z,22.20
2023-05-20T16:31:47.137Z,22.10
2023-05-20T16:34:14.709Z,22.00
2023-05-20T16:36:41.794Z,21.90
2023-05-20T16:39:08.521Z,21.80
2023-05-20T16:41:35.222Z,21.80
2023-05-20T16:44:01.984Z,21.70
2023-05-20T16:46:28.902Z,21.70
2023-05-20T16:48:55.668Z,21.70
2023-05-20T16:51:22.612Z,21.70
2023-05-20T16:53:49.435Z,21.70
2023-05-20T16:56:16.237Z,21.80
2023-05-20T16:58:42.963Z,21.80
2023-05-20T17:01:09.749Z,21.90
2023-05-20T17:03:36.489Z,21.80
2023-05-20T17:06:03.616Z,21.70
2023-05-20T17:08:30.346Z,21.40
2023-05-20T17:10:58.886Z,21.30
2023-05-20T17:13:25.719Z,21.20
2023-05-20T17:15:52.855Z,21.10
2023-05-20T17:18:19.838Z,21.00
2023-05-20T17:20:46.695Z,21.00
2023-05-20T17:23:14.782Z,21.00
2023-05-20T17:25:41.510Z,20.90
2023-05-20T17:28:08.294Z,20.90
2023-05-20T17:30:35.246Z,20.90
2023-05-20T17:33:02.172Z,20.80
2023-05-20T17:35:29.042Z,20.70
2023-05-20T17:37:56.080Z,20.60
2023-05-20T17:40:22.959Z,20.50
2023-05-20T17:42:49.831Z,20.30
2023-05-20T17:45:16.710Z,20.20
2023-05-20T17:47:43.468Z,20.10
2023-05-20T17:50:10.958Z,20.00
2023-05-20T17:52:37.786Z,20.00
2023-05-20T17:55:04.979Z,19.90
2023-05-20T17:57:31.745Z,19.90
2023-05-20T17:59:58.530Z,19.90
2023-05-20T18:02:25.301Z,19.80
2023-05-20T18:04:52.108Z,19.70
2023-05-20T18:07:18.899Z,19.60
2023-05-20T18:09:45.581Z,19.60
2023-05-20T18:12:12.295Z,19.60
2023-05-20T18:14:38.997Z,19.60
2023-05-20T18:17:05.892Z,19.60
2023-05-20T18:19:33.855Z,19.60
2023-05-20T18:22:02.594Z,19.50
2023-05-20T18:24:29.447Z,19.50
2023-05-20T18:26:56.166Z,19.50
2023-05-20T18:29:24.331Z,19.40
2023-05-20T18:31:51.133Z,19.30
2023-05-20T18:34:17.883Z,19.20
2023-05-20T18:36:44.823Z,19.20
2023-05-20T18:39:14.047Z,19.10
2023-05-20T18:44:12.525Z,19.10
2023-05-20T18:46:39.518Z,19.10
2023-05-20T18:49:06.252Z,19.10
2023-05-20T18:51:33.691Z,19.00
2023-05-20T18:54:00.699Z,19.00
2023-05-20T18:56:27.791Z,19.00
2023-05-20T18:58:54.500Z,19.00
2023-05-20T19:01:21.906Z,18.90
2023-05-20T19:03:48.735Z,18.90
2023-05-20T19:06:16.545Z,18.80
2023-05-20T19:08:43.780Z,18.80
2023-05-20T19:11:11.147Z,18.80
2023-05-20T19:13:37.882Z,18.70
2023-05-20T19:16:04.798Z,18.70
2023-05-20T19:18:31.596Z,18.60
2023-05-20T19:20:58.288Z,18.50
2023-05-20T19:23:25.719Z,18.60
2023-05-20T19:25:52.586Z,18.50
2023-05-20T19:28:19.567Z,18.50
2023-05-20T19:30:47.095Z,18.40
2023-05-20T19:33:13.980Z,18.40
2023-05-20T19:35:40.780Z,18.40
2023-05-20T19:38:07.631Z,18.40
2023-05-20T19:40:35.639Z,18.30
2023-05-20T19:43:02.502Z,18.30
2023-05-20T19:45:29.286Z,18.30
2023-05-20T19:47:56.878Z,18.30
2023-05-20T19:50:24.395Z,18.30
2023-05-20T19:52:52.229Z,18.20
2023-05-20T19:55:18.947Z,18.20
2023-05-20T19:57:47.566Z,18.20
2023-05-20T20:00:15.449Z,18.10
2023-05-20T20:02:42.236Z,18.10
2023-05-20T20:05:09.892Z,18.10
2023-05-20T20:07:36.742Z,18.10
2023-05-20T20:10:03.846Z,18.00
2023-05-20T20:12:30.513Z,18.00
2023-05-20T20:14:57.196Z,18.00
2023-05-20T20:17:24.229Z,18.00
2023-05-20T20:19:53.276Z,18.00
2023-05-20T20:22:20.287Z,18.00
2023-05-20T20:24:47.312Z,17.90
2023-05-20T20:27:14.018Z,17.90
2023-05-20T20:29:43.653Z,17.90
2023-05-20T20:32:11.800Z,17.90
2023-05-20T20:34:38.658Z,17.80
2023-05-20T20:37:06.779Z,17.80
2023-05-20T20:39:34.631Z,17.70
2023-05-20T20:42:02.980Z,17.80
2023-05-20T20:44:29.695Z,17.60
2023-05-20T20:46:58.331Z,17.60
2023-05-20T20:49:26.924Z,17.60
2023-05-20T20:51:55.106Z,17.60
2023-05-20T20:54:21.832Z,17.60
2023-05-20T20:56:50.002Z,17.60
2023-05-20T20:59:16.769Z,17.50
2023-05-20T21:01:44.778Z,17.50
2023-05-20T21:04:13.673Z,17.50
2023-05-20T21:06:47.152Z,17.50
2023-05-20T21:09:14.745Z,17.50
2023-05-20T21:11:45.937Z,17.60
2023-05-20T21:14:13.221Z,17.50
2023-05-20T21:16:40.172Z,17.50
2023-05-20T21:19:07.007Z,17.40
2023-05-20T21:21:33.917Z,17.40
2023-05-20T21:24:00.772Z,17.40
2023-05-20T21:26:27.535Z,17.40
2023-05-20T21:28:54.294Z,17.50
2023-05-20T21:31:21.245Z,17.50
2023-05-20T21:33:47.965Z,17.40
2023-05-20T21:36:14.722Z,17.40
2023-05-20T21:38:41.477Z,17.40
2023-05-20T21:41:08.456Z,17.30
2023-05-20T21:43:36.058Z,17.40
2023-05-20T21:46:03.022Z,17.30
2023-05-20T21:48:29.748Z,17.30
2023-05-20T21:50:56.620Z,17.30
2023-05-20T21:53:23.337Z,17.30
2023-05-20T21:55:50.285Z,17.20
2023-05-20T21:58:17.033Z,17.40
2023-05-20T22:00:43.997Z,17.20
2023-05-20T22:03:12.073Z,17.20
2023-05-20T22:05:38.966Z,17.20
2023-05-20T22:08:05.835Z,17.10
2023-05-20T22:10:34.145Z,17.00
2023-05-20T22:13:02.109Z,17.00
2023-05-20T22:15:28.988Z,16.90
2023-05-20T22:17:55.869Z,16.80
2023-05-20T22:20:22.815Z,16.70
2023-05-20T22:22:49.717Z,16.60
2023-05-20T22:25:17.299Z,16.60
2023-05-20T22:27:44.135Z,16.50
2023-05-20T22:30:12.242Z,16.40
2023-05-20T22:32:40.301Z,16.30
2023-05-20T22:35:07.652Z,16.20
2023-05-20T22:37:34.629Z,16.20
2023-05-20T22:40:01.568Z,16.10
2023-05-20T22:42:28.313Z,16.00
2023-05-20T22:44:55.005Z,16.00
2023-05-20T22:47:21.793Z,16.00
2023-05-20T22:49:48.515Z,15.90
2023-05-20T22:52:15.251Z,15.80
2023-05-20T22:54:41.980Z,15.80
2023-05-20T22:57:08.747Z,15.80
2023-05-20T22:59:36.512Z,15.70
2023-05-20T23:02:03.953Z,15.60
2023-05-20T23:04:30.991Z,15.60
2023-05-20T23:06:59.448Z,15.50
2023-05-20T23:09:26.542Z,15.50
2023-05-20T23:11:53.366Z,15.40
2023-05-20T23:14:20.242Z,15.40
2023-05-20T23:16:47.229Z,15.40
2023-05-20T23:19:14.756Z,15.30
2023-05-20T23:21:41.547Z,15.30
2023-05-20T23:24:08.643Z,15.30
2023-05-20T23:26:37.937Z,15.30
2023-05-20T23:29:05.137Z,15.30
2023-05-20T23:31:32.794Z,15.40
2023-05-20T23:33:59.974Z,15.40
2023-05-20T23:36:28.995Z,15.40
2023-05-20T23:38:56.426Z,15.50
2023-05-20T23:41:23.662Z,15.60
2023-05-20T23:43:50.752Z,15.60
2023-05-20T23:46:18.665Z,15.60
2023-05-20T23:48:48.265Z,15.60
2023-05-20T23:51:16.408Z,15.60
2023-05-20T23:53:43.996Z,15.50
2023-05-20T23:56:10.757Z,15.50
2023-05-20T23:58:37.585Z,15.60
